createdAt,value
2022-10-09T00:01:20.985Z,3.67
2022-10-09T00:03:49.439Z,3.60
2022-10-09T00:06:19.849Z,3.25
2022-10-09T00:08:46.784Z,3.38
2022-10-09T00:11:23.038Z,2.85
2022-10-09T00:13:51.277Z,2.83
2022-10-09T00:16:19.488Z,2.88
2022-10-09T00:18:47.599Z,3.10
2022-10-09T00:21:31.939Z,2.50
2022-10-09T00:24:00.904Z,2.22
2022-10-09T00:26:28.410Z,2.20
2022-10-09T00:28:55.377Z,2.28
2022-10-09T00:31:22.426Z,2.30
2022-10-09T00:33:49.322Z,2.47
2022-10-09T00:36:22.488Z,2.35
2022-10-09T00:38:49.868Z,2.50
2022-10-09T00:41:22.828Z,2.60
2022-10-09T00:44:18.532Z,2.25
2022-10-09T00:46:49.776Z,2.60
2022-10-09T00:49:26.386Z,2.40
2022-10-09T00:51:55.295Z,2.90
2022-10-09T00:54:25.326Z,3.40
2022-10-09T00:56:52.183Z,3.40
2022-10-09T00:59:19.451Z,3.10
2022-10-09T01:01:46.623Z,2.90
2022-10-09T01:04:13.396Z,3.38
2022-10-09T01:06:53.742Z,2.63
2022-10-09T01:09:37.106Z,2.50
2022-10-09T01:12:18.185Z,2.30
2022-10-09T01:14:56.376Z,2.00
2022-10-09T01:17:49.119Z,2.60
2022-10-09T01:20:41.846Z,2.10
2022-10-09T01:23:19.975Z,2.20
2022-10-09T01:25:58.883Z,1.85
2022-10-09T01:28:30.348Z,2.08
2022-10-09T01:31:05.456Z,1.98
2022-10-09T01:33:33.573Z,2.10
2022-10-09T01:36:01.403Z,2.53
2022-10-09T01:38:29.576Z,2.53
2022-10-09T01:40:57.473Z,2.50
2022-10-09T01:43:24.063Z,2.28
2022-10-09T01:45:50.893Z,2.15
2022-10-09T01:48:25.089Z,2.08
2022-10-09T01:50:57.906Z,2.20
2022-10-09T01:53:25.963Z,2.10
2022-10-09T01:56:14.067Z,2.15
2022-10-09T01:58:48.463Z,2.05
2022-10-09T02:01:32.419Z,2.40
2022-10-09T02:04:01.092Z,2.08
2022-10-09T02:06:29.983Z,2.10
2022-10-09T02:08:58.392Z,2.17
2022-10-09T02:11:29.888Z,2.40
2022-10-09T02:13:58.244Z,2.50
2022-10-09T02:16:39.142Z,2.22
2022-10-09T02:19:17.681Z,2.25
2022-10-09T02:21:54.437Z,2.25
2022-10-09T02:24:23.271Z,2.17
2022-10-09T02:26:53.171Z,2.03
2022-10-09T02:29:20.236Z,2.40
2022-10-09T02:31:47.083Z,2.42
2022-10-09T02:34:17.701Z,2.28
2022-10-09T02:36:44.259Z,2.22
2022-10-09T02:39:10.879Z,2.08
2022-10-09T02:41:37.618Z,2.35
2022-10-09T02:44:05.983Z,2.20
2022-10-09T02:46:33.400Z,2.20
2022-10-09T02:49:00.167Z,2.03
2022-10-09T02:51:27.198Z,2.20
2022-10-09T02:53:54.473Z,2.30
2022-10-09T02:56:24.111Z,2.20
2022-10-09T02:58:51.600Z,2.13
2022-10-09T03:01:18.446Z,2.40
2022-10-09T03:03:45.848Z,2.20
2022-10-09T03:06:15.354Z,2.22
2022-10-09T03:08:45.015Z,2.20
2022-10-09T03:11:12.827Z,2.17
2022-10-09T03:13:40.013Z,2.45
2022-10-09T03:16:09.133Z,2.42
2022-10-09T03:18:36.657Z,2.20
2022-10-09T03:21:07.993Z,2.20
2022-10-09T03:23:35.222Z,2.08
2022-10-09T03:26:04.832Z,2.10
2022-10-09T03:28:32.045Z,2.20
2022-10-09T03:30:58.814Z,2.10
2022-10-09T03:33:25.486Z,2.08
2022-10-09T03:35:52.309Z,2.40
2022-10-09T03:38:18.935Z,2.25
2022-10-09T03:40:45.568Z,2.65
2022-10-09T03:43:12.711Z,2.50
2022-10-09T03:45:40.688Z,2.08
2022-10-09T03:48:09.366Z,2.45
2022-10-09T03:50:37.802Z,2.67
2022-10-09T03:53:05.766Z,2.25
2022-10-09T03:55:32.485Z,2.28
2022-10-09T03:57:59.399Z,2.97
2022-10-09T04:00:27.401Z,2.13
2022-10-09T04:02:54.102Z,2.38
2022-10-09T04:05:20.944Z,2.20
2022-10-09T04:07:47.542Z,2.45
2022-10-09T04:10:14.333Z,2.65
2022-10-09T04:12:41.126Z,2.20
2022-10-09T04:15:08.518Z,2.00
2022-10-09T04:17:35.145Z,3.50
2022-10-09T04:20:01.818Z,2.20
2022-10-09T04:22:28.471Z,2.10
2022-10-09T04:24:55.176Z,2.25
2022-10-09T04:27:21.798Z,2.15
2022-10-09T04:29:48.378Z,2.22
2022-10-09T04:32:14.960Z,2.38
2022-10-09T04:34:41.634Z,2.40
2022-10-09T04:37:08.291Z,2.20
2022-10-09T04:39:34.926Z,2.33
2022-10-09T04:42:01.753Z,2.00
2022-10-09T04:44:28.580Z,1.70
2022-10-09T04:46:55.208Z,1.85
2022-10-09T04:49:21.863Z,2.20
2022-10-09T04:51:48.658Z,1.90
2022-10-09T04:54:15.408Z,2.38
2022-10-09T04:56:42.006Z,2.38
2022-10-09T04:59:08.830Z,2.33
2022-10-09T05:01:38.288Z,1.98
2022-10-09T05:04:05.490Z,2.30
2022-10-09T05:06:32.147Z,2.35
2022-10-09T05:08:58.809Z,2.33
2022-10-09T05:11:26.219Z,2.35
2022-10-09T05:13:55.941Z,2.10
2022-10-09T05:16:28.616Z,2.03
2022-10-09T05:18:57.710Z,2.40
2022-10-09T05:21:24.536Z,2.25
2022-10-09T05:23:53.386Z,2.53
2022-10-09T05:26:22.449Z,2.17
2022-10-09T05:28:49.671Z,2.15
2022-10-09T05:31:21.210Z,2.00
2022-10-09T05:33:48.381Z,1.92
2022-10-09T05:36:15.534Z,1.90
2022-10-09T05:38:42.143Z,2.50
2022-10-09T05:41:12.812Z,2.30
2022-10-09T05:43:41.930Z,2.40
2022-10-09T05:46:17.627Z,2.17
2022-10-09T05:48:46.731Z,2.50
2022-10-09T05:51:19.160Z,2.05
2022-10-09T05:56:15.873Z,1.95
2022-10-09T05:58:43.815Z,2.10
2022-10-09T06:01:10.972Z,2.03
2022-10-09T06:03:37.948Z,2.22
2022-10-09T06:06:06.423Z,2.40
2022-10-09T06:08:34.188Z,2.13
2022-10-09T06:11:19.322Z,2.25
2022-10-09T06:13:46.505Z,2.53
2022-10-09T06:16:15.228Z,2.35
2022-10-09T06:18:48.706Z,2.58
2022-10-09T06:21:16.694Z,2.30
2022-10-09T06:23:43.625Z,2.78
2022-10-09T06:26:12.855Z,2.40
2022-10-09T06:28:40.517Z,2.50
2022-10-09T06:31:08.806Z,2.55
2022-10-09T06:33:37.619Z,2.55
2022-10-09T06:36:10.687Z,2.70
2022-10-09T06:38:38.471Z,2.38
2022-10-09T06:41:14.091Z,2.63
2022-10-09T06:43:41.583Z,2.50
2022-10-09T06:46:12.907Z,2.90
2022-10-09T06:48:40.879Z,2.92
2022-10-09T06:51:13.295Z,3.10
2022-10-09T06:56:11.667Z,3.17
2022-10-09T06:58:39.318Z,3.40
2022-10-09T07:01:07.271Z,2.85
2022-10-09T07:03:34.995Z,3.00
2022-10-09T07:06:07.460Z,3.25
2022-10-09T07:08:35.363Z,3.45
2022-10-09T07:11:09.068Z,3.30
2022-10-09T07:13:35.813Z,2.92
2022-10-09T07:16:04.838Z,3.60
2022-10-09T07:18:36.066Z,3.15
2022-10-09T07:21:04.508Z,3.35
2022-10-09T07:23:32.043Z,3.53
2022-10-09T07:25:59.452Z,3.97
2022-10-09T07:28:29.007Z,3.60
2022-10-09T07:30:56.681Z,4.00
2022-10-09T07:33:23.296Z,4.35
2022-10-09T07:35:58.077Z,4.53
2022-10-09T07:38:25.855Z,4.43
2022-10-09T07:40:53.675Z,5.10
2022-10-09T07:43:21.784Z,4.78
2022-10-09T07:45:48.677Z,5.10
2022-10-09T07:48:15.540Z,5.32
2022-10-09T07:50:42.183Z,5.55
2022-10-09T07:53:08.980Z,5.45
2022-10-09T07:55:36.199Z,5.00
2022-10-09T07:58:03.169Z,5.90
2022-10-09T08:00:29.807Z,5.15
2022-10-09T08:02:56.514Z,6.07
2022-10-09T08:05:23.253Z,4.93
2022-10-09T08:07:49.830Z,5.20
2022-10-09T08:10:16.545Z,4.82
2022-10-09T08:12:43.215Z,5.28
2022-10-09T08:15:10.314Z,5.22
2022-10-09T08:17:37.055Z,4.60
2022-10-09T08:20:04.117Z,5.05
2022-10-09T08:22:30.868Z,4.75
2022-10-09T08:24:57.929Z,4.97
2022-10-09T08:27:24.886Z,5.22
2022-10-09T08:29:52.004Z,4.93
2022-10-09T08:32:18.790Z,5.15
2022-10-09T08:34:46.484Z,4.47
2022-10-09T08:37:13.205Z,4.40
2022-10-09T08:39:39.864Z,5.03
2022-10-09T08:42:06.643Z,4.93
2022-10-09T08:44:48.903Z,5.00
2022-10-09T08:47:37.063Z,5.18
2022-10-09T08:50:14.905Z,4.50
2022-10-09T08:52:50.065Z,5.05
2022-10-09T08:55:35.860Z,4.72
2022-10-09T08:58:05.786Z,5.10
2022-10-09T09:00:44.476Z,5.53
2022-10-09T09:03:19.927Z,5.50
2022-10-09T09:06:06.480Z,5.47
2022-10-09T09:09:05.588Z,6.30
2022-10-09T09:11:42.613Z,6.72
2022-10-09T09:14:43.587Z,5.53
2022-10-09T09:17:18.201Z,6.20
2022-10-09T09:20:03.483Z,5.47
2022-10-09T09:22:32.069Z,5.20
2022-10-09T09:25:07.493Z,5.10
2022-10-09T09:27:36.709Z,5.28
2022-10-09T09:30:12.180Z,5.38
2022-10-09T09:32:52.118Z,4.78
2022-10-09T09:35:30.031Z,4.82
2022-10-09T09:37:56.739Z,5.38
2022-10-09T09:40:37.929Z,5.47
2022-10-09T09:43:17.887Z,5.40
2022-10-09T09:45:45.933Z,4.65
2022-10-09T09:48:18.707Z,4.57
2022-10-09T09:50:59.853Z,4.70
2022-10-09T09:53:39.941Z,4.95
2022-10-09T09:56:07.745Z,4.40
2022-10-09T09:58:39.678Z,4.00
2022-10-09T10:01:07.681Z,4.32
2022-10-09T10:03:36.054Z,4.20
2022-10-09T10:06:02.957Z,3.90
2022-10-09T10:08:32.273Z,4.18
2022-10-09T10:11:02.653Z,3.67
2022-10-09T10:13:31.967Z,3.50
2022-10-09T10:15:58.954Z,3.30
2022-10-09T10:18:29.165Z,3.65
2022-10-09T10:21:01.472Z,3.60
2022-10-09T10:23:36.636Z,3.40
2022-10-09T10:26:19.414Z,3.90
2022-10-09T10:29:06.175Z,3.13
2022-10-09T10:31:46.160Z,3.17
2022-10-09T10:34:22.359Z,3.40
2022-10-09T10:36:55.465Z,3.50
2022-10-09T10:39:35.745Z,3.08
2022-10-09T10:42:05.478Z,3.00
2022-10-09T10:44:47.609Z,3.00
2022-10-09T10:47:21.691Z,2.60
2022-10-09T10:49:48.642Z,3.00
2022-10-09T10:52:34.153Z,2.50
2022-10-09T10:55:06.708Z,2.38
2022-10-09T10:57:48.519Z,2.70
2022-10-09T11:00:17.230Z,2.60
2022-10-09T11:03:20.828Z,2.92
2022-10-09T11:05:54.634Z,2.97
2022-10-09T11:08:43.445Z,3.00
2022-10-09T11:11:22.027Z,2.95
2022-10-09T11:14:03.803Z,3.50
2022-10-09T11:16:47.075Z,3.40
2022-10-09T11:19:33.502Z,3.33
2022-10-09T11:22:24.539Z,3.10
2022-10-09T11:25:06.294Z,3.03
2022-10-09T11:27:37.767Z,3.10
2022-10-09T11:30:13.646Z,2.83
2022-10-09T11:33:05.129Z,3.20
2022-10-09T11:35:42.581Z,3.08
2022-10-09T11:38:27.348Z,3.50
2022-10-09T11:40:54.994Z,2.58
2022-10-09T11:43:27.463Z,3.08
2022-10-09T11:46:09.846Z,2.65
2022-10-09T11:49:09.956Z,2.70
2022-10-09T11:51:50.867Z,2.70
2022-10-09T11:54:21.228Z,2.47
2022-10-09T11:56:59.017Z,2.90
2022-10-09T11:59:36.475Z,2.53
2022-10-09T12:02:26.044Z,2.53
2022-10-09T12:04:55.265Z,2.40
2022-10-09T12:10:36.358Z,2.60
2022-10-09T12:13:07.311Z,2.70
2022-10-09T12:15:45.493Z,2.37
2022-10-09T12:18:34.567Z,2.58
2022-10-09T12:21:05.299Z,2.65
2022-10-09T12:23:37.249Z,2.50
2022-10-09T12:26:04.624Z,2.60
2022-10-09T12:28:46.049Z,3.22
2022-10-09T12:31:35.433Z,2.97
2022-10-09T12:34:25.630Z,2.67
2022-10-09T12:37:02.844Z,3.00
2022-10-09T12:39:29.496Z,2.97
2022-10-09T12:41:58.320Z,2.80
2022-10-09T12:44:38.748Z,2.90
2022-10-09T12:47:14.803Z,2.53
2022-10-09T12:49:41.424Z,2.60
2022-10-09T12:52:15.839Z,2.70
2022-10-09T12:54:44.844Z,2.78
2022-10-09T12:57:16.263Z,2.80
2022-10-09T12:59:45.340Z,2.80
2022-10-09T13:02:16.497Z,2.85
2022-10-09T13:04:55.838Z,3.22
2022-10-09T13:07:25.257Z,2.70
2022-10-09T13:10:18.129Z,3.20
2022-10-09T13:12:57.014Z,3.22
2022-10-09T13:15:44.079Z,2.72
2022-10-09T13:18:21.891Z,3.10
2022-10-09T13:21:00.336Z,2.90
2022-10-09T13:23:36.211Z,3.00
2022-10-09T13:26:05.733Z,3.30
2022-10-09T13:28:32.427Z,2.95
2022-10-09T13:31:08.767Z,3.17
2022-10-09T13:33:35.529Z,2.78
2022-10-09T13:36:02.187Z,2.55
2022-10-09T13:38:32.657Z,3.30
2022-10-09T13:41:01.329Z,2.60
2022-10-09T13:43:29.046Z,2.70
2022-10-09T13:45:55.874Z,2.90
2022-10-09T13:48:23.580Z,2.95
2022-10-09T13:50:50.371Z,2.90
2022-10-09T13:53:17.602Z,2.65
2022-10-09T13:55:44.411Z,2.90
2022-10-09T13:58:11.179Z,2.80
2022-10-09T14:00:39.598Z,2.58
2022-10-09T14:03:06.535Z,2.50
2022-10-09T14:05:33.342Z,2.40
2022-10-09T14:07:59.964Z,2.30
2022-10-09T14:10:26.755Z,2.45
2022-10-09T14:12:53.451Z,2.63
2022-10-09T14:15:20.168Z,2.50
2022-10-09T14:17:47.088Z,2.47
2022-10-09T14:20:14.146Z,2.35
2022-10-09T14:22:40.936Z,2.45
2022-10-09T14:25:08.381Z,2.53
2022-10-09T14:30:02.101Z,2.70
2022-10-09T14:32:28.739Z,2.70
2022-10-09T14:34:55.725Z,2.42
2022-10-09T14:37:40.601Z,2.60
2022-10-09T14:40:08.950Z,2.60
2022-10-09T14:42:37.555Z,2.50
2022-10-09T14:45:04.819Z,2.33
2022-10-09T14:47:32.476Z,2.42
2022-10-09T14:49:59.832Z,2.50
2022-10-09T14:52:26.472Z,2.35
2022-10-09T14:54:53.332Z,2.45
2022-10-09T14:57:19.973Z,2.50
2022-10-09T14:59:46.629Z,2.20
2022-10-09T15:02:15.468Z,2.47
2022-10-09T15:04:42.555Z,2.28
2022-10-09T15:07:09.403Z,2.30
2022-10-09T15:09:36.161Z,2.50
2022-10-09T15:12:03.133Z,2.47
2022-10-09T15:14:30.043Z,2.47
2022-10-09T15:16:56.799Z,2.42
2022-10-09T15:19:23.750Z,2.88
2022-10-09T15:21:50.490Z,2.75
2022-10-09T15:24:17.136Z,2.50
2022-10-09T15:26:43.772Z,2.38
2022-10-09T15:29:12.051Z,2.20
2022-10-09T15:31:41.381Z,2.20
2022-10-09T15:34:10.266Z,2.28
2022-10-09T15:36:39.995Z,2.50
2022-10-09T15:39:08.796Z,2.33
2022-10-09T15:41:38.204Z,1.98
2022-10-09T15:44:07.375Z,2.03
2022-10-09T15:46:34.463Z,2.38
2022-10-09T15:49:01.239Z,1.95
2022-10-09T15:51:30.067Z,2.00
2022-10-09T15:53:59.859Z,2.00
2022-10-09T15:56:27.097Z,2.05
2022-10-09T15:58:55.874Z,2.17
2022-10-09T16:01:23.517Z,2.08
2022-10-09T16:03:51.431Z,2.22
2022-10-09T16:06:21.332Z,2.20
2022-10-09T16:08:48.486Z,2.10
2022-10-09T16:11:19.172Z,2.20
2022-10-09T16:13:48.603Z,2.25
2022-10-09T16:16:21.914Z,2.50
2022-10-09T16:18:49.368Z,2.60
2022-10-09T16:21:25.076Z,2.50
2022-10-09T16:23:57.304Z,2.47
2022-10-09T16:26:26.478Z,2.55
2022-10-09T16:28:53.317Z,2.28
2022-10-09T16:31:19.944Z,2.35
2022-10-09T16:33:46.581Z,2.30
2022-10-09T16:36:13.750Z,2.55
2022-10-09T16:38:40.726Z,2.50
2022-10-09T16:41:10.337Z,2.60
2022-10-09T16:43:37.771Z,2.42
2022-10-09T16:46:18.286Z,2.10
2022-10-09T16:48:45.462Z,2.65
2022-10-09T16:51:16.656Z,2.78
2022-10-09T16:53:43.729Z,2.58
2022-10-09T16:56:12.578Z,2.80
2022-10-09T16:58:40.636Z,3.20
2022-10-09T17:01:09.835Z,3.45
2022-10-09T17:03:40.683Z,3.17
2022-10-09T17:06:09.885Z,3.80
2022-10-09T17:08:36.771Z,3.78
2022-10-09T17:11:09.577Z,3.83
2022-10-09T17:13:37.165Z,3.50
2022-10-09T17:16:08.288Z,3.13
2022-10-09T17:18:36.379Z,2.55
2022-10-09T17:21:08.883Z,2.50
2022-10-09T17:23:35.971Z,2.80
2022-10-09T17:26:11.979Z,2.60
2022-10-09T17:28:39.886Z,2.80
2022-10-09T17:31:09.136Z,2.40
2022-10-09T17:33:41.941Z,2.63
2022-10-09T17:36:10.767Z,3.10
2022-10-09T17:38:37.983Z,2.85
2022-10-09T17:41:09.439Z,2.67
2022-10-09T17:43:36.576Z,2.60
2022-10-09T17:46:03.597Z,2.70
2022-10-09T17:48:32.953Z,2.70
2022-10-09T17:51:00.891Z,2.90
2022-10-09T17:53:28.111Z,2.90
2022-10-09T17:55:57.033Z,3.05
2022-10-09T17:58:24.646Z,3.60
2022-10-09T18:00:51.687Z,4.55
2022-10-09T18:03:18.978Z,3.53
2022-10-09T18:05:49.326Z,3.42
2022-10-09T18:08:18.209Z,3.00
2022-10-09T18:10:45.661Z,2.90
2022-10-09T18:13:12.574Z,3.10
2022-10-09T18:15:41.359Z,2.90
2022-10-09T18:18:09.154Z,3.03
2022-10-09T18:20:37.416Z,3.28
2022-10-09T18:23:05.153Z,2.90
2022-10-09T18:25:32.542Z,2.50
2022-10-09T18:27:59.215Z,2.33
2022-10-09T18:30:27.470Z,2.60
2022-10-09T18:32:54.528Z,2.55
2022-10-09T18:35:21.339Z,2.60
2022-10-09T18:37:47.922Z,2.75
2022-10-09T18:40:14.607Z,2.58
2022-10-09T18:42:41.279Z,2.88
2022-10-09T18:45:12.496Z,2.50
2022-10-09T18:47:41.521Z,2.50
2022-10-09T18:50:10.847Z,3.10
2022-10-09T18:52:39.416Z,2.58
2022-10-09T18:55:08.782Z,2.70
2022-10-09T18:57:37.412Z,2.55
2022-10-09T19:00:04.940Z,2.20
2022-10-09T19:02:31.841Z,2.83
2022-10-09T19:04:58.866Z,2.55
2022-10-09T19:07:25.712Z,2.75
2022-10-09T19:09:57.184Z,2.35
2022-10-09T19:12:24.585Z,2.30
2022-10-09T19:14:51.578Z,2.22
2022-10-09T19:17:18.401Z,2.60
2022-10-09T19:19:45.312Z,2.70
2022-10-09T19:22:16.436Z,2.53
2022-10-09T19:24:44.551Z,2.50
2022-10-09T19:27:11.282Z,2.25
2022-10-09T19:29:38.257Z,4.05
2022-10-09T19:32:05.136Z,9.57
2022-10-09T19:34:31.988Z,5.35
2022-10-09T19:36:58.807Z,2.70
2022-10-09T19:39:25.472Z,2.10
2022-10-09T19:41:52.554Z,1.98
2022-10-09T19:44:19.850Z,2.00
2022-10-09T19:46:46.726Z,2.00
2022-10-09T19:49:13.786Z,1.90
2022-10-09T19:51:40.475Z,1.90
2022-10-09T19:54:09.231Z,2.20
2022-10-09T19:56:37.063Z,2.40
2022-10-09T19:59:06.270Z,2.40
2022-10-09T20:01:35.538Z,2.40
2022-10-09T20:04:07.533Z,2.30
2022-10-09T20:06:37.332Z,2.67
2022-10-09T20:09:08.000Z,2.60
2022-10-09T20:11:34.954Z,3.20
2022-10-09T20:14:02.426Z,2.50
2022-10-09T20:16:32.211Z,2.67
2022-10-09T20:19:00.693Z,2.63
2022-10-09T20:21:29.272Z,2.45
2022-10-09T20:23:57.221Z,2.47
2022-10-09T20:26:24.501Z,2.72
2022-10-09T20:28:55.452Z,2.83
2022-10-09T20:31:25.993Z,2.78
2022-10-09T20:33:54.122Z,3.65
2022-10-09T20:36:33.480Z,2.75
2022-10-09T20:39:02.672Z,2.58
2022-10-09T20:41:31.035Z,2.50
2022-10-09T20:43:59.312Z,2.42
2022-10-09T20:46:28.447Z,2.72
2022-10-09T20:48:55.566Z,2.65
2022-10-09T20:51:23.061Z,2.60
2022-10-09T20:53:56.052Z,2.70
2022-10-09T20:56:24.383Z,2.65
2022-10-09T20:58:51.106Z,2.75
2022-10-09T21:01:18.657Z,3.10
2022-10-09T21:03:45.357Z,3.25
2022-10-09T21:06:16.379Z,3.28
2022-10-09T21:08:43.191Z,3.63
2022-10-09T21:11:13.538Z,3.72
2022-10-09T21:13:41.592Z,3.63
2022-10-09T21:16:11.627Z,4.65
2022-10-09T21:18:39.763Z,3.03
2022-10-09T21:21:12.577Z,3.45
2022-10-09T21:23:40.763Z,2.80
2022-10-09T21:26:13.195Z,2.60
2022-10-09T21:31:11.315Z,2.90
2022-10-09T21:33:38.214Z,2.88
2022-10-09T21:36:11.692Z,3.13
2022-10-09T21:38:38.892Z,3.25
2022-10-09T21:41:05.538Z,3.38
2022-10-09T21:43:32.158Z,3.75
2022-10-09T21:45:58.971Z,3.15
2022-10-09T21:48:25.846Z,3.50
2022-10-09T21:50:52.604Z,2.92
2022-10-09T21:53:19.236Z,2.90
2022-10-09T21:55:45.894Z,2.50
2022-10-09T21:58:12.524Z,2.35
2022-10-09T22:00:39.309Z,2.60
2022-10-09T22:03:05.925Z,2.38
2022-10-09T22:05:32.717Z,2.45
2022-10-09T22:07:59.368Z,2.95
2022-10-09T22:10:26.223Z,2.70
2022-10-09T22:12:53.098Z,2.60
2022-10-09T22:15:19.981Z,3.10
2022-10-09T22:17:46.588Z,3.38
2022-10-09T22:20:13.336Z,3.40
2022-10-09T22:22:40.110Z,3.22
2022-10-09T22:25:08.483Z,3.78
2022-10-09T22:27:35.246Z,3.42
2022-10-09T22:30:02.124Z,3.28
2022-10-09T22:32:28.887Z,3.15
2022-10-09T22:34:55.483Z,3.33
2022-10-09T22:37:22.092Z,3.20
2022-10-09T22:39:49.276Z,2.92
2022-10-09T22:42:15.933Z,2.72
2022-10-09T22:44:42.628Z,2.95
2022-10-09T22:47:09.416Z,2.67
2022-10-09T22:49:36.073Z,2.88
2022-10-09T22:52:02.783Z,3.40
2022-10-09T22:54:29.683Z,5.70
2022-10-09T22:56:56.246Z,3.20
2022-10-09T22:59:23.142Z,3.35
2022-10-09T23:01:54.188Z,3.40
2022-10-09T23:04:22.450Z,2.80
2022-10-09T23:06:51.427Z,3.67
2022-10-09T23:09:18.819Z,3.40
2022-10-09T23:11:46.084Z,3.90
2022-10-09T23:14:13.447Z,4.75
2022-10-09T23:16:41.764Z,4.40
2022-10-09T23:19:09.414Z,4.80
2022-10-09T23:21:40.339Z,3.97
2022-10-09T23:24:08.470Z,4.70
2022-10-09T23:26:36.250Z,3.83
2022-10-09T23:29:07.370Z,3.35
2022-10-09T23:31:34.529Z,3.40
2022-10-09T23:34:02.408Z,3.80
2022-10-09T23:36:29.624Z,3.30
2022-10-09T23:38:57.240Z,3.47
2022-10-09T23:41:26.523Z,3.58
2022-10-09T23:43:53.668Z,3.35
2022-10-09T23:46:28.544Z,4.30
2022-10-09T23:48:55.447Z,5.05
2022-10-09T23:51:23.617Z,5.50
2022-10-09T23:53:50.908Z,6.90
2022-10-09T23:56:21.650Z,5.18
2022-10-09T23:58:48.985Z,4.95
